Collins, Iowa
Current Conditions -  °F | °C
As of 10:53 PM on Wednesday 22 Oct 2014 (Local Time) from KAMW Reporting Station
Overcast Overcast  
Wind Chill: 54°   Ceiling: 10000
Heat Index: 54°   Visibility: 10mi
Dew Point: 43°   Wind: 10mph
Humidity: 66%   Direction: 150°SSE
Pressure: 30.1"   Gusts: NA
Location:  41.9°N, 93.31°W
Report Text: KAMW 230353Z AUTO 15009KT 10SM FEW065 OVC100 12/06 A3010 RMK AO2 SLP192 T01220061
Loading
Personal Weather Stations






























Interactive Weather Map
Tropical Storm Tracking
New forecast layout! Learn more

10-Day Weather Forecast

Advertisements
Track Severe Weather on mobile